sensor_id;sensor_type;location;lat;lon;timestamp;temperature;humidity
8862;DHT22;4799;50.996;4.754;2022-10-16T00:01:30;13.20;99.90
8862;DHT22;4799;50.996;4.754;2022-10-16T00:03:57;13.20;99.90
8862;DHT22;4799;50.996;4.754;2022-10-16T00:06:25;13.10;99.90
8862;DHT22;4799;50.996;4.754;2022-10-16T00:08:51;13.10;99.90
8862;DHT22;4799;50.996;4.754;2022-10-16T00:11:21;13.10;99.90
8862;DHT22;4799;50.996;4.754;2022-10-16T00:13:48;13.10;99.90
8862;DHT22;4799;50.996;4.754;2022-10-16T00:16:15;13.00;99.90
8862;DHT22;4799;50.996;4.754;2022-10-16T00:18:41;13.00;99.90
8862;DHT22;4799;50.996;4.754;2022-10-16T00:21:10;13.00;99.90
8862;DHT22;4799;50.996;4.754;2022-10-16T00:23:36;13.00;99.90
8862;DHT22;4799;50.996;4.754;2022-10-16T00:26:05;12.90;99.90
8862;DHT22;4799;50.996;4.754;2022-10-16T00:28:31;12.90;99.90
8862;DHT22;4799;50.996;4.754;2022-10-16T00:30:57;12.90;99.90
8862;DHT22;4799;50.996;4.754;2022-10-16T00:33:23;12.90;99.90
8862;DHT22;4799;50.996;4.754;2022-10-16T00:35:49;12.90;99.90
8862;DHT22;4799;50.996;4.754;2022-10-16T00:38:16;12.80;99.90
8862;DHT22;4799;50.996;4.754;2022-10-16T00:40:41;12.80;99.90
8862;DHT22;4799;50.996;4.754;2022-10-16T00:43:45;12.80;99.90
8862;DHT22;4799;50.996;4.754;2022-10-16T00:46:21;12.80;99.90
8862;DHT22;4799;50.996;4.754;2022-10-16T00:49:08;12.80;99.90
8862;DHT22;4799;50.996;4.754;2022-10-16T00:51:49;12.80;99.90
8862;DHT22;4799;50.996;4.754;2022-10-16T00:54:29;12.70;99.90
8862;DHT22;4799;50.996;4.754;2022-10-16T00:56:58;12.70;99.90
8862;DHT22;4799;50.996;4.754;2022-10-16T00:59:32;12.70;99.90
8862;DHT22;4799;50.996;4.754;2022-10-16T01:01:59;12.60;99.90
8862;DHT22;4799;50.996;4.754;2022-10-16T01:04:25;12.60;99.90
8862;DHT22;4799;50.996;4.754;2022-10-16T01:13:18;12.60;99.90
8862;DHT22;4799;50.996;4.754;2022-10-16T01:15:54;12.60;99.90
8862;DHT22;4799;50.996;4.754;2022-10-16T01:18:52;12.50;99.90
8862;DHT22;4799;50.996;4.754;2022-10-16T01:21:22;12.50;99.90
8862;DHT22;4799;50.996;4.754;2022-10-16T01:27:13;12.50;99.90
8862;DHT22;4799;50.996;4.754;2022-10-16T01:30:01;12.50;99.90
8862;DHT22;4799;50.996;4.754;2022-10-16T01:32:34;12.50;99.90
8862;DHT22;4799;50.996;4.754;2022-10-16T01:35:13;12.40;99.90
8862;DHT22;4799;50.996;4.754;2022-10-16T01:40:16;12.40;99.90
8862;DHT22;4799;50.996;4.754;2022-10-16T01:43:00;12.40;99.90
8862;DHT22;4799;50.996;4.754;2022-10-16T01:45:28;12.30;99.90
8862;DHT22;4799;50.996;4.754;2022-10-16T01:47:56;12.30;99.90
8862;DHT22;4799;50.996;4.754;2022-10-16T01:50:24;12.30;99.90
8862;DHT22;4799;50.996;4.754;2022-10-16T01:52:53;12.20;99.90
8862;DHT22;4799;50.996;4.754;2022-10-16T01:55:24;12.20;99.90
8862;DHT22;4799;50.996;4.754;2022-10-16T01:57:53;12.20;99.90
8862;DHT22;4799;50.996;4.754;2022-10-16T02:00:21;12.20;99.90
8862;DHT22;4799;50.996;4.754;2022-10-16T02:02:49;12.20;99.90
8862;DHT22;4799;50.996;4.754;2022-10-16T02:07:48;12.10;99.90
8862;DHT22;4799;50.996;4.754;2022-10-16T02:10:14;12.20;99.90
8862;DHT22;4799;50.996;4.754;2022-10-16T02:12:43;12.20;99.90
8862;DHT22;4799;50.996;4.754;2022-10-16T02:15:10;12.20;99.90
8862;DHT22;4799;50.996;4.754;2022-10-16T02:17:36;12.20;99.90
8862;DHT22;4799;50.996;4.754;2022-10-16T02:20:03;12.20;99.90
8862;DHT22;4799;50.996;4.754;2022-10-16T02:22:33;12.20;99.90
8862;DHT22;4799;50.996;4.754;2022-10-16T02:27:44;12.20;99.90
8862;DHT22;4799;50.996;4.754;2022-10-16T02:30:47;12.20;99.90
8862;DHT22;4799;50.996;4.754;2022-10-16T02:33:13;12.20;99.90
8862;DHT22;4799;50.996;4.754;2022-10-16T02:35:41;12.20;99.90
8862;DHT22;4799;50.996;4.754;2022-10-16T02:38:09;12.20;99.90
8862;DHT22;4799;50.996;4.754;2022-10-16T02:40:36;12.20;99.90
8862;DHT22;4799;50.996;4.754;2022-10-16T02:43:03;12.20;99.90
8862;DHT22;4799;50.996;4.754;2022-10-16T02:45:29;12.20;99.90
8862;DHT22;4799;50.996;4.754;2022-10-16T02:47:55;12.20;99.90
8862;DHT22;4799;50.996;4.754;2022-10-16T02:50:21;12.20;99.90
8862;DHT22;4799;50.996;4.754;2022-10-16T02:52:47;12.20;99.90
8862;DHT22;4799;50.996;4.754;2022-10-16T02:55:13;12.20;99.90
8862;DHT22;4799;50.996;4.754;2022-10-16T02:57:39;12.20;99.90
8862;DHT22;4799;50.996;4.754;2022-10-16T03:00:07;12.20;99.90
8862;DHT22;4799;50.996;4.754;2022-10-16T03:02:34;12.20;99.90
8862;DHT22;4799;50.996;4.754;2022-10-16T03:04:59;12.20;99.90
8862;DHT22;4799;50.996;4.754;2022-10-16T03:07:25;12.20;99.90
8862;DHT22;4799;50.996;4.754;2022-10-16T03:09:51;12.20;99.90
8862;DHT22;4799;50.996;4.754;2022-10-16T03:12:16;12.20;99.90
8862;DHT22;4799;50.996;4.754;2022-10-16T03:14:42;12.20;99.90
8862;DHT22;4799;50.996;4.754;2022-10-16T03:17:08;12.30;99.90
8862;DHT22;4799;50.996;4.754;2022-10-16T03:19:33;12.30;99.90
8862;DHT22;4799;50.996;4.754;2022-10-16T03:22:00;12.30;99.90
8862;DHT22;4799;50.996;4.754;2022-10-16T03:24:25;12.30;99.90
8862;DHT22;4799;50.996;4.754;2022-10-16T03:26:51;12.30;99.90
8862;DHT22;4799;50.996;4.754;2022-10-16T03:29:17;12.40;99.90
8862;DHT22;4799;50.996;4.754;2022-10-16T03:31:42;12.40;99.90
8862;DHT22;4799;50.996;4.754;2022-10-16T03:34:08;12.40;99.90
8862;DHT22;4799;50.996;4.754;2022-10-16T03:36:34;12.40;99.90
8862;DHT22;4799;50.996;4.754;2022-10-16T03:39:00;12.40;99.90
8862;DHT22;4799;50.996;4.754;2022-10-16T03:41:25;12.40;99.90
8862;DHT22;4799;50.996;4.754;2022-10-16T03:43:51;12.40;99.90
8862;DHT22;4799;50.996;4.754;2022-10-16T03:46:17;12.40;99.90
8862;DHT22;4799;50.996;4.754;2022-10-16T03:48:42;12.40;99.90
8862;DHT22;4799;50.996;4.754;2022-10-16T03:51:08;12.40;99.90
8862;DHT22;4799;50.996;4.754;2022-10-16T03:53:34;12.40;99.90
8862;DHT22;4799;50.996;4.754;2022-10-16T03:55:59;12.40;99.90
8862;DHT22;4799;50.996;4.754;2022-10-16T03:58:25;12.40;99.90
8862;DHT22;4799;50.996;4.754;2022-10-16T04:00:51;12.40;99.90
8862;DHT22;4799;50.996;4.754;2022-10-16T04:03:17;12.40;99.90
8862;DHT22;4799;50.996;4.754;2022-10-16T04:05:44;12.40;99.90
8862;DHT22;4799;50.996;4.754;2022-10-16T04:08:10;12.40;99.90
8862;DHT22;4799;50.996;4.754;2022-10-16T04:10:36;12.40;99.90
8862;DHT22;4799;50.996;4.754;2022-10-16T04:13:01;12.40;99.90
8862;DHT22;4799;50.996;4.754;2022-10-16T04:15:27;12.40;99.90
8862;DHT22;4799;50.996;4.754;2022-10-16T04:17:53;12.40;99.90
8862;DHT22;4799;50.996;4.754;2022-10-16T04:20:18;12.40;99.90
8862;DHT22;4799;50.996;4.754;2022-10-16T04:22:44;12.40;99.90
8862;DHT22;4799;50.996;4.754;2022-10-16T04:25:10;12.40;99.90
8862;DHT22;4799;50.996;4.754;2022-10-16T04:27:37;12.40;99.90
8862;DHT22;4799;50.996;4.754;2022-10-16T04:30:04;12.40;99.90
8862;DHT22;4799;50.996;4.754;2022-10-16T04:32:29;12.30;99.90
8862;DHT22;4799;50.996;4.754;2022-10-16T04:34:55;12.30;99.90
8862;DHT22;4799;50.996;4.754;2022-10-16T04:37:27;12.30;99.90
8862;DHT22;4799;50.996;4.754;2022-10-16T04:39:53;12.30;99.90
8862;DHT22;4799;50.996;4.754;2022-10-16T04:42:20;12.20;99.90
8862;DHT22;4799;50.996;4.754;2022-10-16T04:44:46;12.20;99.90
8862;DHT22;4799;50.996;4.754;2022-10-16T04:47:13;12.20;99.90
8862;DHT22;4799;50.996;4.754;2022-10-16T04:49:39;12.20;99.90
8862;DHT22;4799;50.996;4.754;2022-10-16T04:52:05;12.20;99.90
8862;DHT22;4799;50.996;4.754;2022-10-16T04:54:31;12.10;99.90
8862;DHT22;4799;50.996;4.754;2022-10-16T04:56:57;12.10;99.90
8862;DHT22;4799;50.996;4.754;2022-10-16T04:59:23;12.10;99.90
8862;DHT22;4799;50.996;4.754;2022-10-16T05:01:49;12.20;99.90
8862;DHT22;4799;50.996;4.754;2022-10-16T05:04:14;12.10;99.90
8862;DHT22;4799;50.996;4.754;2022-10-16T05:06:40;12.10;99.90
8862;DHT22;4799;50.996;4.754;2022-10-16T05:09:07;12.10;99.90
8862;DHT22;4799;50.996;4.754;2022-10-16T05:11:34;12.10;99.90
8862;DHT22;4799;50.996;4.754;2022-10-16T05:14:00;12.10;99.90
8862;DHT22;4799;50.996;4.754;2022-10-16T05:16:26;12.10;99.90
8862;DHT22;4799;50.996;4.754;2022-10-16T05:18:52;12.00;99.90
8862;DHT22;4799;50.996;4.754;2022-10-16T05:21:18;12.00;99.90
8862;DHT22;4799;50.996;4.754;2022-10-16T05:23:44;12.00;99.90
8862;DHT22;4799;50.996;4.754;2022-10-16T05:26:10;12.00;99.90
8862;DHT22;4799;50.996;4.754;2022-10-16T05:28:36;12.00;99.90
8862;DHT22;4799;50.996;4.754;2022-10-16T05:31:09;12.00;99.90
8862;DHT22;4799;50.996;4.754;2022-10-16T05:33:35;11.90;99.90
8862;DHT22;4799;50.996;4.754;2022-10-16T05:36:02;11.90;99.90
8862;DHT22;4799;50.996;4.754;2022-10-16T05:38:28;11.90;99.90
8862;DHT22;4799;50.996;4.754;2022-10-16T05:40:54;11.90;99.90
8862;DHT22;4799;50.996;4.754;2022-10-16T05:43:20;11.80;99.90
8862;DHT22;4799;50.996;4.754;2022-10-16T05:45:57;11.90;99.90
8862;DHT22;4799;50.996;4.754;2022-10-16T05:48:24;11.80;99.90
8862;DHT22;4799;50.996;4.754;2022-10-16T05:51:00;11.80;99.90
8862;DHT22;4799;50.996;4.754;2022-10-16T05:53:30;11.80;99.90
8862;DHT22;4799;50.996;4.754;2022-10-16T05:55:57;11.80;99.90
8862;DHT22;4799;50.996;4.754;2022-10-16T05:58:24;11.90;99.90
8862;DHT22;4799;50.996;4.754;2022-10-16T06:01:00;11.80;99.90
8862;DHT22;4799;50.996;4.754;2022-10-16T06:03:27;11.80;99.90
8862;DHT22;4799;50.996;4.754;2022-10-16T06:05:53;11.80;99.90
8862;DHT22;4799;50.996;4.754;2022-10-16T06:08:20;11.80;99.90
8862;DHT22;4799;50.996;4.754;2022-10-16T06:10:46;11.80;99.90
8862;DHT22;4799;50.996;4.754;2022-10-16T06:13:13;11.70;99.90
8862;DHT22;4799;50.996;4.754;2022-10-16T06:15:40;11.70;99.90
8862;DHT22;4799;50.996;4.754;2022-10-16T06:18:09;11.70;99.90
8862;DHT22;4799;50.996;4.754;2022-10-16T06:20:36;11.70;99.90
8862;DHT22;4799;50.996;4.754;2022-10-16T06:23:02;11.80;99.90
8862;DHT22;4799;50.996;4.754;2022-10-16T06:25:30;11.70;99.90
8862;DHT22;4799;50.996;4.754;2022-10-16T06:27:56;11.70;99.90
8862;DHT22;4799;50.996;4.754;2022-10-16T06:30:22;11.70;99.90
8862;DHT22;4799;50.996;4.754;2022-10-16T06:32:48;11.80;99.90
8862;DHT22;4799;50.996;4.754;2022-10-16T06:35:13;11.80;99.90
8862;DHT22;4799;50.996;4.754;2022-10-16T06:37:39;11.80;99.90
8862;DHT22;4799;50.996;4.754;2022-10-16T06:40:05;11.90;99.90
8862;DHT22;4799;50.996;4.754;2022-10-16T06:42:31;11.90;99.90
8862;DHT22;4799;50.996;4.754;2022-10-16T06:44:57;11.90;99.90
8862;DHT22;4799;50.996;4.754;2022-10-16T06:47:22;12.00;99.90
8862;DHT22;4799;50.996;4.754;2022-10-16T06:49:48;12.00;99.90
8862;DHT22;4799;50.996;4.754;2022-10-16T06:52:14;12.00;99.90
8862;DHT22;4799;50.996;4.754;2022-10-16T06:54:39;12.10;99.90
8862;DHT22;4799;50.996;4.754;2022-10-16T06:57:05;12.10;99.90
8862;DHT22;4799;50.996;4.754;2022-10-16T06:59:31;12.10;99.90
8862;DHT22;4799;50.996;4.754;2022-10-16T07:01:56;12.20;99.90
8862;DHT22;4799;50.996;4.754;2022-10-16T07:04:22;12.30;99.90
8862;DHT22;4799;50.996;4.754;2022-10-16T07:06:48;12.40;99.90
8862;DHT22;4799;50.996;4.754;2022-10-16T07:09:14;12.40;99.90
8862;DHT22;4799;50.996;4.754;2022-10-16T07:11:40;12.50;99.90
8862;DHT22;4799;50.996;4.754;2022-10-16T07:14:16;12.50;99.90
8862;DHT22;4799;50.996;4.754;2022-10-16T07:16:42;12.60;99.90
8862;DHT22;4799;50.996;4.754;2022-10-16T07:19:09;12.60;99.90
8862;DHT22;4799;50.996;4.754;2022-10-16T07:21:37;12.60;99.90
8862;DHT22;4799;50.996;4.754;2022-10-16T07:24:05;12.70;99.90
8862;DHT22;4799;50.996;4.754;2022-10-16T07:26:34;12.70;99.90
8862;DHT22;4799;50.996;4.754;2022-10-16T07:29:00;12.80;99.90
8862;DHT22;4799;50.996;4.754;2022-10-16T07:31:27;12.80;99.90
8862;DHT22;4799;50.996;4.754;2022-10-16T07:33:53;12.90;99.90
8862;DHT22;4799;50.996;4.754;2022-10-16T07:36:20;12.90;99.90
8862;DHT22;4799;50.996;4.754;2022-10-16T07:38:46;13.00;99.90
8862;DHT22;4799;50.996;4.754;2022-10-16T07:41:15;13.00;99.90
8862;DHT22;4799;50.996;4.754;2022-10-16T07:43:46;13.10;99.90
8862;DHT22;4799;50.996;4.754;2022-10-16T07:46:12;13.20;99.90
8862;DHT22;4799;50.996;4.754;2022-10-16T07:48:38;13.20;99.90
8862;DHT22;4799;50.996;4.754;2022-10-16T07:51:05;13.20;99.90
8862;DHT22;4799;50.996;4.754;2022-10-16T07:53:32;13.20;99.90
8862;DHT22;4799;50.996;4.754;2022-10-16T07:56:04;13.30;99.90
8862;DHT22;4799;50.996;4.754;2022-10-16T07:58:30;13.40;99.90
8862;DHT22;4799;50.996;4.754;2022-10-16T08:00:57;13.40;99.90
8862;DHT22;4799;50.996;4.754;2022-10-16T08:03:23;13.50;99.90
8862;DHT22;4799;50.996;4.754;2022-10-16T08:05:49;13.60;99.90
8862;DHT22;4799;50.996;4.754;2022-10-16T08:08:19;13.60;99.90
8862;DHT22;4799;50.996;4.754;2022-10-16T08:10:44;13.70;99.90
8862;DHT22;4799;50.996;4.754;2022-10-16T08:13:10;13.80;99.90
8862;DHT22;4799;50.996;4.754;2022-10-16T08:15:36;13.80;99.90
8862;DHT22;4799;50.996;4.754;2022-10-16T08:18:04;13.90;99.90
8862;DHT22;4799;50.996;4.754;2022-10-16T08:20:31;13.90;99.90
8862;DHT22;4799;50.996;4.754;2022-10-16T08:22:57;14.00;99.90
8862;DHT22;4799;50.996;4.754;2022-10-16T08:25:23;14.00;99.90
8862;DHT22;4799;50.996;4.754;2022-10-16T08:27:49;14.10;99.90
8862;DHT22;4799;50.996;4.754;2022-10-16T08:30:17;14.20;99.90
8862;DHT22;4799;50.996;4.754;2022-10-16T08:32:43;14.20;99.90
8862;DHT22;4799;50.996;4.754;2022-10-16T08:35:10;14.30;99.90
8862;DHT22;4799;50.996;4.754;2022-10-16T08:37:36;14.30;99.90
8862;DHT22;4799;50.996;4.754;2022-10-16T08:40:04;14.40;99.90
8862;DHT22;4799;50.996;4.754;2022-10-16T08:50:40;14.60;99.90
8862;DHT22;4799;50.996;4.754;2022-10-16T08:53:06;14.70;99.90
8862;DHT22;4799;50.996;4.754;2022-10-16T08:56:02;14.80;99.90
8862;DHT22;4799;50.996;4.754;2022-10-16T08:58:29;14.90;99.90
8862;DHT22;4799;50.996;4.754;2022-10-16T09:01:00;14.90;99.90
8862;DHT22;4799;50.996;4.754;2022-10-16T09:06:31;15.10;99.90
8862;DHT22;4799;50.996;4.754;2022-10-16T09:25:43;15.50;99.90
8862;DHT22;4799;50.996;4.754;2022-10-16T09:28:09;15.50;99.90
8862;DHT22;4799;50.996;4.754;2022-10-16T09:30:35;15.60;99.90
8862;DHT22;4799;50.996;4.754;2022-10-16T09:33:02;15.60;99.90
8862;DHT22;4799;50.996;4.754;2022-10-16T09:35:42;15.70;99.90
8862;DHT22;4799;50.996;4.754;2022-10-16T09:38:08;15.70;99.90
8862;DHT22;4799;50.996;4.754;2022-10-16T09:40:38;15.80;99.90
8862;DHT22;4799;50.996;4.754;2022-10-16T09:43:26;15.90;99.90
8862;DHT22;4799;50.996;4.754;2022-10-16T09:48:22;16.00;99.90
8862;DHT22;4799;50.996;4.754;2022-10-16T09:51:03;16.10;99.90
8862;DHT22;4799;50.996;4.754;2022-10-16T09:53:42;16.10;99.90
8862;DHT22;4799;50.996;4.754;2022-10-16T09:56:10;16.10;99.90
8862;DHT22;4799;50.996;4.754;2022-10-16T09:58:42;16.10;99.90
8862;DHT22;4799;50.996;4.754;2022-10-16T10:01:14;16.20;99.90
8862;DHT22;4799;50.996;4.754;2022-10-16T10:03:42;16.40;99.90
8862;DHT22;4799;50.996;4.754;2022-10-16T10:06:41;16.60;99.90
8862;DHT22;4799;50.996;4.754;2022-10-16T10:09:24;16.80;99.90
8862;DHT22;4799;50.996;4.754;2022-10-16T10:11:58;17.00;99.90
8862;DHT22;4799;50.996;4.754;2022-10-16T10:19:41;17.20;99.90
8862;DHT22;4799;50.996;4.754;2022-10-16T10:22:32;17.20;99.90
8862;DHT22;4799;50.996;4.754;2022-10-16T10:30:15;17.50;99.90
8862;DHT22;4799;50.996;4.754;2022-10-16T10:38:53;17.90;99.90
8862;DHT22;4799;50.996;4.754;2022-10-16T10:52:44;18.40;99.90
8862;DHT22;4799;50.996;4.754;2022-10-16T11:03:56;18.30;99.90
8862;DHT22;4799;50.996;4.754;2022-10-16T11:06:34;18.30;99.90
8862;DHT22;4799;50.996;4.754;2022-10-16T11:09:36;18.50;99.90
8862;DHT22;4799;50.996;4.754;2022-10-16T11:12:00;18.60;99.90
8862;DHT22;4799;50.996;4.754;2022-10-16T11:14:36;18.60;99.90
8862;DHT22;4799;50.996;4.754;2022-10-16T11:20:23;18.80;99.90
8862;DHT22;4799;50.996;4.754;2022-10-16T11:22:56;19.00;99.90
8862;DHT22;4799;50.996;4.754;2022-10-16T11:25:27;19.10;99.90
8862;DHT22;4799;50.996;4.754;2022-10-16T11:28:12;19.10;99.90
8862;DHT22;4799;50.996;4.754;2022-10-16T11:36:53;19.60;99.90
8862;DHT22;4799;50.996;4.754;2022-10-16T11:41:53;19.80;99.90
8862;DHT22;4799;50.996;4.754;2022-10-16T11:47:24;20.00;99.90
8862;DHT22;4799;50.996;4.754;2022-10-16T11:49:55;20.20;99.90
8862;DHT22;4799;50.996;4.754;2022-10-16T11:52:39;20.40;99.90
8862;DHT22;4799;50.996;4.754;2022-10-16T11:55:21;20.60;99.90
8862;DHT22;4799;50.996;4.754;2022-10-16T11:57:54;20.70;99.90
8862;DHT22;4799;50.996;4.754;2022-10-16T12:00:31;20.90;99.90
8862;DHT22;4799;50.996;4.754;2022-10-16T12:06:12;20.80;99.90
8862;DHT22;4799;50.996;4.754;2022-10-16T12:08:40;20.80;99.90
8862;DHT22;4799;50.996;4.754;2022-10-16T12:11:08;20.60;99.90
8862;DHT22;4799;50.996;4.754;2022-10-16T12:13:37;20.50;99.90
8862;DHT22;4799;50.996;4.754;2022-10-16T12:18:45;20.20;99.90
8862;DHT22;4799;50.996;4.754;2022-10-16T12:21:13;20.10;99.90
8862;DHT22;4799;50.996;4.754;2022-10-16T12:23:48;20.10;99.90
8862;DHT22;4799;50.996;4.754;2022-10-16T12:26:23;20.20;99.90
8862;DHT22;4799;50.996;4.754;2022-10-16T12:28:49;20.20;99.90
8862;DHT22;4799;50.996;4.754;2022-10-16T12:31:17;20.30;99.90
8862;DHT22;4799;50.996;4.754;2022-10-16T12:34:01;20.40;99.90
8862;DHT22;4799;50.996;4.754;2022-10-16T12:36:32;20.50;99.90
8862;DHT22;4799;50.996;4.754;2022-10-16T12:38:59;20.50;99.90
8862;DHT22;4799;50.996;4.754;2022-10-16T12:41:34;20.50;99.90
8862;DHT22;4799;50.996;4.754;2022-10-16T12:44:01;20.60;99.90
8862;DHT22;4799;50.996;4.754;2022-10-16T12:51:42;20.60;99.90
8862;DHT22;4799;50.996;4.754;2022-10-16T12:54:58;20.50;99.90
8862;DHT22;4799;50.996;4.754;2022-10-16T13:02:56;20.80;99.90
8862;DHT22;4799;50.996;4.754;2022-10-16T13:05:42;20.80;99.90
8862;DHT22;4799;50.996;4.754;2022-10-16T13:11:03;20.70;99.90
8862;DHT22;4799;50.996;4.754;2022-10-16T13:27:40;20.90;99.90
8862;DHT22;4799;50.996;4.754;2022-10-16T13:29:52;21.10;99.90
8862;DHT22;4799;50.996;4.754;2022-10-16T13:32:21;21.10;99.90
8862;DHT22;4799;50.996;4.754;2022-10-16T13:34:48;21.00;99.90
8862;DHT22;4799;50.996;4.754;2022-10-16T13:37:19;20.90;99.90
8862;DHT22;4799;50.996;4.754;2022-10-16T13:39:45;20.90;99.90
8862;DHT22;4799;50.996;4.754;2022-10-16T13:42:30;20.90;99.90
8862;DHT22;4799;50.996;4.754;2022-10-16T13:44:57;20.80;99.90
8862;DHT22;4799;50.996;4.754;2022-10-16T13:47:25;20.80;99.90
8862;DHT22;4799;50.996;4.754;2022-10-16T13:50:13;20.90;99.90
8862;DHT22;4799;50.996;4.754;2022-10-16T13:52:39;21.00;99.90
8862;DHT22;4799;50.996;4.754;2022-10-16T13:55:11;21.00;99.90
8862;DHT22;4799;50.996;4.754;2022-10-16T13:57:37;21.10;99.90
8862;DHT22;4799;50.996;4.754;2022-10-16T14:00:16;21.00;99.90
8862;DHT22;4799;50.996;4.754;2022-10-16T14:02:42;20.90;99.90
8862;DHT22;4799;50.996;4.754;2022-10-16T14:05:09;20.90;99.90
8862;DHT22;4799;50.996;4.754;2022-10-16T14:07:36;20.80;99.90
8862;DHT22;4799;50.996;4.754;2022-10-16T14:10:18;20.80;99.90
8862;DHT22;4799;50.996;4.754;2022-10-16T14:12:44;20.80;99.90
8862;DHT22;4799;50.996;4.754;2022-10-16T14:15:18;20.70;99.90
8862;DHT22;4799;50.996;4.754;2022-10-16T14:17:45;20.70;99.90
8862;DHT22;4799;50.996;4.754;2022-10-16T14:20:14;20.70;99.90
8862;DHT22;4799;50.996;4.754;2022-10-16T14:22:42;20.60;99.90
8862;DHT22;4799;50.996;4.754;2022-10-16T14:27:58;20.60;99.90
8862;DHT22;4799;50.996;4.754;2022-10-16T14:30:26;20.60;99.90
8862;DHT22;4799;50.996;4.754;2022-10-16T14:32:58;20.60;99.90
8862;DHT22;4799;50.996;4.754;2022-10-16T14:35:30;20.50;99.90
8862;DHT22;4799;50.996;4.754;2022-10-16T14:37:57;20.50;99.90
8862;DHT22;4799;50.996;4.754;2022-10-16T14:40:25;20.50;99.90
8862;DHT22;4799;50.996;4.754;2022-10-16T14:42:52;20.50;99.90
8862;DHT22;4799;50.996;4.754;2022-10-16T14:45:28;20.50;99.90
8862;DHT22;4799;50.996;4.754;2022-10-16T14:48:01;20.40;99.90
8862;DHT22;4799;50.996;4.754;2022-10-16T14:50:28;20.30;99.90
8862;DHT22;4799;50.996;4.754;2022-10-16T14:52:54;20.20;99.90
8862;DHT22;4799;50.996;4.754;2022-10-16T14:55:20;20.20;99.90
8862;DHT22;4799;50.996;4.754;2022-10-16T14:57:46;20.10;99.90
8862;DHT22;4799;50.996;4.754;2022-10-16T15:00:22;20.00;99.90
8862;DHT22;4799;50.996;4.754;2022-10-16T15:02:49;19.90;99.90
8862;DHT22;4799;50.996;4.754;2022-10-16T15:05:17;19.90;99.90
8862;DHT22;4799;50.996;4.754;2022-10-16T15:07:43;19.80;99.90
8862;DHT22;4799;50.996;4.754;2022-10-16T15:10:10;19.80;99.90
8862;DHT22;4799;50.996;4.754;2022-10-16T15:12:36;19.70;99.90
8862;DHT22;4799;50.996;4.754;2022-10-16T15:15:01;19.70;99.90
8862;DHT22;4799;50.996;4.754;2022-10-16T15:17:27;19.70;99.90
8862;DHT22;4799;50.996;4.754;2022-10-16T15:19:53;19.60;99.90
8862;DHT22;4799;50.996;4.754;2022-10-16T15:22:18;19.60;99.90
8862;DHT22;4799;50.996;4.754;2022-10-16T15:24:44;19.60;99.90
8862;DHT22;4799;50.996;4.754;2022-10-16T15:27:10;19.60;99.90
8862;DHT22;4799;50.996;4.754;2022-10-16T15:29:36;19.50;99.90
8862;DHT22;4799;50.996;4.754;2022-10-16T15:32:01;19.50;99.90
8862;DHT22;4799;50.996;4.754;2022-10-16T15:34:27;19.50;99.90
8862;DHT22;4799;50.996;4.754;2022-10-16T15:36:53;19.40;99.90
8862;DHT22;4799;50.996;4.754;2022-10-16T15:39:20;19.40;99.90
8862;DHT22;4799;50.996;4.754;2022-10-16T15:41:47;19.30;99.90
8862;DHT22;4799;50.996;4.754;2022-10-16T15:44:20;19.30;99.90
8862;DHT22;4799;50.996;4.754;2022-10-16T15:46:47;19.20;99.90
8862;DHT22;4799;50.996;4.754;2022-10-16T15:49:13;19.10;99.90
8862;DHT22;4799;50.996;4.754;2022-10-16T15:51:40;19.10;99.90
8862;DHT22;4799;50.996;4.754;2022-10-16T15:54:06;19.00;99.90
8862;DHT22;4799;50.996;4.754;2022-10-16T15:56:32;19.00;99.90
8862;DHT22;4799;50.996;4.754;2022-10-16T15:58:59;18.90;99.90
8862;DHT22;4799;50.996;4.754;2022-10-16T16:01:26;18.80;99.90
8862;DHT22;4799;50.996;4.754;2022-10-16T16:03:55;18.70;99.90
8862;DHT22;4799;50.996;4.754;2022-10-16T16:06:22;18.70;99.90
8862;DHT22;4799;50.996;4.754;2022-10-16T16:08:51;18.60;99.90
8862;DHT22;4799;50.996;4.754;2022-10-16T16:11:18;18.50;99.90
8862;DHT22;4799;50.996;4.754;2022-10-16T16:13:44;18.50;99.90
8862;DHT22;4799;50.996;4.754;2022-10-16T16:16:15;18.50;99.90
8862;DHT22;4799;50.996;4.754;2022-10-16T16:18:42;18.40;99.90
8862;DHT22;4799;50.996;4.754;2022-10-16T16:21:10;18.30;99.90
8862;DHT22;4799;50.996;4.754;2022-10-16T16:23:36;18.30;99.90
8862;DHT22;4799;50.996;4.754;2022-10-16T16:26:29;18.20;99.90
8862;DHT22;4799;50.996;4.754;2022-10-16T16:28:59;18.20;99.90
8862;DHT22;4799;50.996;4.754;2022-10-16T16:31:27;18.10;99.90
8862;DHT22;4799;50.996;4.754;2022-10-16T16:33:53;18.00;99.90
8862;DHT22;4799;50.996;4.754;2022-10-16T16:36:20;18.00;99.90
8862;DHT22;4799;50.996;4.754;2022-10-16T16:38:46;17.90;99.90
8862;DHT22;4799;50.996;4.754;2022-10-16T16:41:20;17.90;99.90
8862;DHT22;4799;50.996;4.754;2022-10-16T16:43:46;17.90;99.90
8862;DHT22;4799;50.996;4.754;2022-10-16T16:46:13;17.80;99.90
8862;DHT22;4799;50.996;4.754;2022-10-16T16:48:39;17.80;99.90
8862;DHT22;4799;50.996;4.754;2022-10-16T16:51:08;17.80;99.90
8862;DHT22;4799;50.996;4.754;2022-10-16T16:53:35;17.70;99.90
8862;DHT22;4799;50.996;4.754;2022-10-16T16:56:02;17.70;99.90
8862;DHT22;4799;50.996;4.754;2022-10-16T16:58:28;17.60;99.90
8862;DHT22;4799;50.996;4.754;2022-10-16T17:00:54;17.60;99.90
8862;DHT22;4799;50.996;4.754;2022-10-16T17:03:19;17.50;99.90
8862;DHT22;4799;50.996;4.754;2022-10-16T17:05:58;17.40;99.90
8862;DHT22;4799;50.996;4.754;2022-10-16T17:08:24;17.40;99.90
8862;DHT22;4799;50.996;4.754;2022-10-16T17:10:50;17.40;99.90
8862;DHT22;4799;50.996;4.754;2022-10-16T17:13:19;17.40;99.90
8862;DHT22;4799;50.996;4.754;2022-10-16T17:15:49;17.30;99.90
8862;DHT22;4799;50.996;4.754;2022-10-16T17:18:16;17.30;99.90
8862;DHT22;4799;50.996;4.754;2022-10-16T17:20:42;17.30;99.90
8862;DHT22;4799;50.996;4.754;2022-10-16T17:23:09;17.40;99.90
8862;DHT22;4799;50.996;4.754;2022-10-16T17:25:40;17.40;99.90
8862;DHT22;4799;50.996;4.754;2022-10-16T17:28:07;17.40;99.90
8862;DHT22;4799;50.996;4.754;2022-10-16T17:30:34;17.40;99.90
8862;DHT22;4799;50.996;4.754;2022-10-16T17:33:00;17.40;99.90
8862;DHT22;4799;50.996;4.754;2022-10-16T17:35:27;17.40;99.90
8862;DHT22;4799;50.996;4.754;2022-10-16T17:37:52;17.30;99.90
8862;DHT22;4799;50.996;4.754;2022-10-16T17:40:19;17.20;99.90
8862;DHT22;4799;50.996;4.754;2022-10-16T17:42:44;17.20;99.90
8862;DHT22;4799;50.996;4.754;2022-10-16T17:45:10;17.10;99.90
8862;DHT22;4799;50.996;4.754;2022-10-16T17:47:36;17.00;99.90
8862;DHT22;4799;50.996;4.754;2022-10-16T17:50:03;17.00;99.90
8862;DHT22;4799;50.996;4.754;2022-10-16T17:52:29;16.90;99.90
8862;DHT22;4799;50.996;4.754;2022-10-16T17:54:55;16.90;99.90
8862;DHT22;4799;50.996;4.754;2022-10-16T17:57:22;16.80;99.90
8862;DHT22;4799;50.996;4.754;2022-10-16T17:59:48;16.80;99.90
8862;DHT22;4799;50.996;4.754;2022-10-16T18:02:14;16.80;99.90
8862;DHT22;4799;50.996;4.754;2022-10-16T18:04:40;16.80;99.90
8862;DHT22;4799;50.996;4.754;2022-10-16T18:07:06;16.80;99.90
8862;DHT22;4799;50.996;4.754;2022-10-16T18:09:31;16.80;99.90
8862;DHT22;4799;50.996;4.754;2022-10-16T18:11:57;16.70;99.90
8862;DHT22;4799;50.996;4.754;2022-10-16T18:14:28;16.70;99.90
8862;DHT22;4799;50.996;4.754;2022-10-16T18:16:54;16.60;99.90
8862;DHT22;4799;50.996;4.754;2022-10-16T18:19:21;16.60;99.90
8862;DHT22;4799;50.996;4.754;2022-10-16T18:21:47;16.50;99.90
8862;DHT22;4799;50.996;4.754;2022-10-16T18:24:14;16.50;99.90
8862;DHT22;4799;50.996;4.754;2022-10-16T18:26:40;16.50;99.90
8862;DHT22;4799;50.996;4.754;2022-10-16T18:29:07;16.50;99.90